Time;durP1;ratioP1;P1;durP2;ratioP2;P2;SDS_P1;SDS_P2;PMS_P1;PMS_P2;Temp;Humidity;BMP_temperature;BMP_pressure;BME280_temperature;BME280_humidity;BME280_pressure;Samples;Min_cycle;Max_cycle;Signal;HPM_P1;HPM_P2
2022/05/14 00:01:27;;;;;;;3.53;1.85;;;14.70;73.00;;;14.77;100.00;100970.47;5051012;28;20074;-75
2022/05/14 00:03:54;;;;;;;3.72;2.15;;;15.50;74.00;;;14.78;100.00;100971.38;5047186;28;20130;-76
2022/05/14 00:06:26;;;;;;;3.38;2.10;;;14.70;73.60;;;14.58;100.00;100973.69;5049146;28;20053;-75
2022/05/14 00:08:54;;;;;;;4.95;2.10;;;15.50;74.60;;;14.41;100.00;100971.53;5046571;28;20067;-75
2022/05/14 00:14:09;;;;;;;5.68;2.00;;;15.30;74.40;;;14.41;100.00;100968.03;5047207;28;20084;-75
2022/05/14 00:16:37;;;;;;;5.22;2.42;;;14.40;74.70;;;14.37;100.00;100967.25;5048686;28;20037;-75
2022/05/14 00:19:07;;;;;;;5.47;2.35;;;14.40;74.70;;;14.21;100.00;100966.88;5030157;28;20070;-75
2022/05/14 00:21:36;;;;;;;3.83;2.00;;;14.40;74.90;;;14.06;100.00;100967.31;5047352;28;20128;-75
2022/05/14 00:24:06;;;;;;;4.07;2.35;;;14.20;75.20;;;14.10;100.00;100966.31;5021628;28;20050;-75
2022/05/14 00:26:36;;;;;;;7.45;2.40;;;14.20;75.40;;;14.12;100.00;100972.44;5067211;28;20050;-76
2022/05/14 00:29:04;;;;;;;4.47;2.33;;;14.20;76.00;;;14.02;100.00;100969.19;5065718;28;20045;-76
2022/05/14 00:31:31;;;;;;;2.53;1.90;;;14.10;77.00;;;13.83;100.00;100974.13;5067090;28;20040;-75
2022/05/14 00:33:59;;;;;;;4.63;2.15;;;14.00;77.50;;;13.89;100.00;100968.66;5049946;28;20609;-75
2022/05/14 00:36:26;;;;;;;4.78;2.60;;;13.90;77.60;;;13.82;100.00;100967.97;5057512;28;20044;-75
2022/05/14 00:38:54;;;;;;;4.93;2.10;;;13.90;77.90;;;13.91;100.00;100966.84;5046219;28;20429;-75
2022/05/14 00:41:21;;;;;;;4.70;2.05;;;13.90;78.10;;;13.82;100.00;100975.91;5048618;28;20504;-75
2022/05/14 00:43:59;;;;;;;3.97;2.20;;;13.90;78.30;;;13.65;100.00;100978.13;5050102;28;20049;-75
2022/05/14 00:46:46;;;;;;;3.30;1.92;;;13.80;78.50;;;13.57;100.00;100973.94;5066926;28;20145;-75
2022/05/14 00:49:16;;;;;;;3.92;2.08;;;13.80;78.80;;;13.53;100.00;100972.28;5065821;28;20119;-76
2022/05/14 00:51:45;;;;;;;4.60;2.58;;;13.70;79.40;;;13.56;100.00;100976.59;5050193;28;20052;-75
2022/05/14 00:54:18;;;;;;;3.70;1.83;;;14.30;80.00;;;13.44;100.00;100973.41;5067914;28;20068;-75
2022/05/14 00:56:56;;;;;;;3.47;1.90;;;13.60;79.50;;;13.43;100.00;100974.31;5066550;28;20064;-75
2022/05/14 00:59:25;;;;;;;3.03;2.00;;;13.50;79.30;;;13.25;100.00;100978.25;5064979;28;20032;-75
2022/05/14 01:01:54;;;;;;;4.22;2.33;;;13.80;80.10;;;13.27;100.00;100973.78;5049994;28;20480;-75
2022/05/14 01:04:23;;;;;;;4.05;1.83;;;13.40;80.00;;;13.33;100.00;100978.06;5033733;28;20048;-75
2022/05/14 01:07:08;;;;;;;6.35;2.47;;;13.30;80.40;;;13.22;100.00;100972.16;5049603;28;20047;-75
2022/05/14 01:09:44;;;;;;;4.00;2.22;;;13.30;80.70;;;13.32;100.00;100965.75;5049719;28;20049;-75
2022/05/14 01:12:12;;;;;;;4.25;1.95;;;13.30;80.40;;;13.19;100.00;100968.69;5033583;28;20041;-75
2022/05/14 01:14:40;;;;;;;4.70;1.88;;;13.30;81.00;;;13.20;100.00;100977.50;5049505;28;20070;-75
2022/05/14 01:17:07;;;;;;;3.67;2.08;;;14.00;81.60;;;13.11;100.00;100975.97;5049161;28;20838;-75
2022/05/14 01:19:35;;;;;;;5.10;2.08;;;13.50;81.40;;;13.18;100.00;100972.25;5048983;28;20040;-75
2022/05/14 01:22:34;;;;;;;4.93;2.30;;;13.20;81.20;;;13.32;100.00;100971.88;5065596;28;20047;-75
2022/05/14 01:28:49;;;;;;;5.80;2.83;;;13.20;82.50;;;13.43;100.00;100965.47;5066910;28;20086;-75
2022/05/14 01:31:17;;;;;;;6.40;2.60;;;14.10;83.10;;;13.44;100.00;100968.13;5065950;28;20072;-75
2022/05/14 01:33:44;;;;;;;6.20;3.22;;;13.30;83.30;;;13.47;100.00;100967.13;5048760;28;20102;-75
2022/05/14 01:36:11;;;;;;;8.25;2.60;;;13.30;83.90;;;13.49;100.00;100961.81;5049241;28;20045;-75
2022/05/14 01:38:38;;;;;;;5.35;2.45;;;13.30;83.50;;;13.38;100.00;100955.00;5065165;28;20040;-75
2022/05/14 01:41:05;;;;;;;4.40;2.22;;;13.30;83.50;;;13.39;100.00;100958.53;5048975;28;20041;-74
2022/05/14 01:43:33;;;;;;;3.88;2.33;;;14.20;83.50;;;13.23;100.00;100961.56;5065492;28;20041;-75
2022/05/14 01:46:00;;;;;;;3.63;2.28;;;14.10;83.60;;;12.90;100.00;100961.50;5049425;28;20044;-75
2022/05/14 01:48:27;;;;;;;4.10;2.25;;;13.20;83.20;;;13.07;100.00;100954.94;5065223;28;20059;-75
2022/05/14 01:50:54;;;;;;;4.00;2.50;;;13.10;84.00;;;13.18;100.00;100956.41;5048464;28;20048;-75
2022/05/14 01:53:21;;;;;;;6.72;2.90;;;13.10;84.40;;;13.26;100.00;100960.59;5047630;28;20493;-75
2022/05/14 01:55:49;;;;;;;5.60;2.83;;;13.10;86.00;;;13.33;100.00;100964.84;5029211;28;20490;-75
2022/05/14 02:01:27;;;;;;;5.40;2.95;;;13.20;86.20;;;13.26;100.00;100956.19;5045405;28;20052;-75
2022/05/14 02:04:01;;;;;;;6.00;3.00;;;13.20;86.40;;;13.16;100.00;100944.13;5045647;28;20106;-75
2022/05/14 02:06:30;;;;;;;5.00;3.03;;;13.20;86.70;;;13.22;100.00;100949.28;5029549;28;20090;-75
2022/05/14 02:09:00;;;;;;;5.13;2.72;;;13.20;86.20;;;13.15;100.00;100951.19;5006331;28;20174;-75
2022/05/14 02:11:29;;;;;;;7.38;2.63;;;13.10;86.20;;;13.19;100.00;100952.00;5007859;28;20057;-75
2022/05/14 02:14:25;;;;;;;9.25;2.92;;;13.40;86.30;;;12.81;100.00;100949.41;5013959;28;20526;-75
2022/05/14 02:16:52;;;;;;;5.47;2.33;;;13.10;85.80;;;12.83;100.00;100954.63;5008177;28;20049;-75
2022/05/14 02:19:19;;;;;;;7.38;2.22;;;13.00;85.90;;;12.80;100.00;100949.41;5006701;28;20096;-75
2022/05/14 02:21:46;;;;;;;2.80;2.30;;;12.90;86.20;;;12.58;100.00;100958.72;5006492;28;20092;-75
2022/05/14 02:24:13;;;;;;;4.55;2.55;;;12.80;86.80;;;12.40;100.00;100954.69;5006231;28;20525;-76
2022/05/14 02:26:42;;;;;;;3.17;2.17;;;13.30;87.50;;;12.33;100.00;100954.00;5007629;28;20936;-75
2022/05/14 02:29:09;;;;;;;4.63;2.17;;;12.60;87.30;;;12.29;100.00;100954.09;5024199;28;20080;-75
2022/05/14 02:31:36;;;;;;;5.80;2.30;;;12.60;87.40;;;12.27;100.00;100953.28;5010553;28;20049;-75
2022/05/14 02:34:03;;;;;;;3.47;2.25;;;13.40;88.20;;;12.39;100.00;100957.41;5007180;28;20065;-77
2022/05/14 02:36:31;;;;;;;3.42;2.25;;;12.40;87.60;;;12.48;100.00;100951.91;5018198;28;20128;-75
2022/05/14 02:38:58;;;;;;;5.60;2.63;;;12.40;87.20;;;12.40;100.00;100953.84;5025968;28;20536;-75
2022/05/14 02:41:25;;;;;;;5.13;2.28;;;12.90;88.00;;;12.34;100.00;100952.22;5010046;28;20049;-75
2022/05/14 02:43:53;;;;;;;6.07;2.40;;;12.40;87.90;;;12.31;100.00;100962.84;5010778;28;20048;-75
2022/05/14 02:46:21;;;;;;;6.15;2.60;;;12.40;88.40;;;12.36;100.00;100966.25;5025735;28;20056;-75
2022/05/14 02:48:49;;;;;;;7.35;2.67;;;12.30;88.80;;;12.37;100.00;100960.06;5047820;28;20048;-75
2022/05/14 02:51:16;;;;;;;3.85;2.58;;;12.40;89.20;;;12.15;100.00;100965.81;5048158;28;20125;-74
2022/05/14 02:53:44;;;;;;;5.97;2.83;;;12.30;89.00;;;12.29;100.00;100967.28;5047968;28;20539;-75
2022/05/14 02:56:13;;;;;;;5.80;3.08;;;12.90;90.30;;;12.12;100.00;100976.44;5064475;28;20131;-74
2022/05/14 03:01:26;;;;;;;4.22;2.60;;;12.40;90.00;;;12.18;100.00;100973.66;5065171;28;20141;-75
2022/05/14 03:03:53;;;;;;;5.78;2.60;;;12.40;90.10;;;12.09;100.00;100971.19;5065227;28;20444;-75
2022/05/14 03:06:21;;;;;;;3.20;2.30;;;12.20;90.40;;;12.06;100.00;100973.91;5048102;28;20044;-75
2022/05/14 03:08:51;;;;;;;5.78;3.63;;;12.20;90.10;;;11.81;100.00;100970.84;5065119;28;20048;-75
2022/05/14 03:11:19;;;;;;;6.80;2.30;;;12.10;90.30;;;11.70;100.00;100968.44;5068716;28;20044;-75
2022/05/14 03:13:48;;;;;;;4.30;2.42;;;12.00;90.50;;;11.86;100.00;100972.50;5069761;28;20068;-75
2022/05/14 03:16:20;;;;;;;3.78;2.50;;;11.90;90.20;;;11.87;100.00;100965.47;5069845;28;20503;-75
2022/05/14 03:18:48;;;;;;;4.18;2.75;;;12.00;90.60;;;11.77;100.00;100964.75;5067180;28;20413;-75
2022/05/14 03:21:15;;;;;;;4.32;2.88;;;11.90;90.90;;;11.95;100.00;100974.09;5051675;28;20472;-75
2022/05/14 03:23:42;;;;;;;7.70;3.05;;;11.80;91.40;;;11.96;100.00;100978.47;5051206;28;20090;-75
2022/05/14 03:26:09;;;;;;;3.35;2.58;;;11.90;91.20;;;11.91;100.00;100968.00;5068661;28;20047;-75
2022/05/14 03:28:37;;;;;;;3.47;2.47;;;12.00;91.30;;;11.94;100.00;100974.09;5051443;28;20167;-75
2022/05/14 03:31:04;;;;;;;5.35;4.10;;;12.90;91.80;;;12.01;100.00;100976.63;5067850;28;20055;-75
2022/05/14 03:33:32;;;;;;;5.18;2.60;;;12.00;91.20;;;11.85;100.00;100973.41;5050723;28;20052;-75
2022/05/14 03:35:59;;;;;;;4.43;2.55;;;12.00;91.30;;;11.81;100.00;100969.09;5067991;28;20051;-75
2022/05/14 03:38:26;;;;;;;5.18;2.45;;;13.10;91.70;;;11.88;100.00;100972.50;5067346;28;20400;-75
2022/05/14 03:40:53;;;;;;;3.97;2.35;;;12.80;91.60;;;12.02;100.00;100970.47;5067399;28;20149;-75
2022/05/14 03:43:21;;;;;;;3.63;2.40;;;11.90;91.70;;;12.02;100.00;100977.50;5050546;28;20464;-75
2022/05/14 03:45:48;;;;;;;5.72;2.55;;;13.00;92.70;;;12.12;100.00;100980.81;5051224;28;20048;-75
2022/05/14 03:48:15;;;;;;;6.93;2.85;;;12.00;92.20;;;11.94;100.00;100972.34;5057631;28;20393;-75
2022/05/14 03:50:42;;;;;;;5.10;3.17;;;12.30;92.00;;;12.03;100.00;100977.50;5056286;28;20052;-75
2022/05/14 03:53:10;;;;;;;6.63;3.28;;;12.00;91.60;;;12.01;100.00;100981.03;5055822;28;20055;-75
2022/05/14 03:55:37;;;;;;;3.58;2.70;;;13.00;91.60;;;12.02;100.00;100978.41;5048836;28;20048;-75
2022/05/14 03:58:05;;;;;;;4.45;2.53;;;12.00;92.10;;;12.11;100.00;100981.72;5014712;28;20045;-75
2022/05/14 04:00:34;;;;;;;4.32;2.50;;;12.20;92.80;;;12.13;100.00;100985.19;5045813;28;20053;-76
2022/05/14 04:03:02;;;;;;;4.30;2.45;;;12.10;92.90;;;12.18;100.00;100986.84;5052186;28;20060;-75
2022/05/14 04:05:29;;;;;;;4.68;2.53;;;12.00;93.40;;;12.19;100.00;100987.72;5050195;28;20505;-75
2022/05/14 04:07:57;;;;;;;4.78;2.92;;;12.10;93.00;;;12.20;100.00;100989.47;5067996;28;20776;-76
2022/05/14 04:10:24;;;;;;;3.38;2.28;;;12.10;93.20;;;11.98;100.00;100984.56;5067960;28;20110;-76
2022/05/14 04:12:52;;;;;;;7.65;2.83;;;12.10;92.50;;;11.90;100.00;100982.09;5067758;28;20060;-75
2022/05/14 04:15:19;;;;;;;5.38;2.53;;;12.10;92.00;;;11.84;100.00;100987.50;5066967;28;20044;-76
2022/05/14 04:17:46;;;;;;;3.75;2.40;;;12.20;92.20;;;11.78;100.00;100990.22;5067813;28;20048;-75
2022/05/14 04:20:13;;;;;;;6.95;3.03;;;12.00;92.00;;;11.55;100.00;100988.91;5066434;28;20040;-75
2022/05/14 04:22:47;;;;;;;6.60;2.17;;;13.00;92.50;;;11.52;100.00;100988.09;5052023;28;20485;-76
2022/05/14 04:25:18;;;;;;;3.50;2.50;;;11.80;92.40;;;11.72;100.00;100983.34;5050773;28;20044;-76
2022/05/14 04:27:46;;;;;;;2.58;2.05;;;12.00;92.60;;;11.72;100.00;100987.72;5045833;28;20055;-75
2022/05/14 04:30:15;;;;;;;4.72;2.60;;;11.70;92.60;;;11.59;100.00;100987.94;5047276;28;20147;-76
2022/05/14 04:32:45;;;;;;;7.47;2.25;;;12.90;93.30;;;11.66;100.00;100987.84;5031929;28;20073;-76
2022/05/14 04:35:16;;;;;;;2.53;2.10;;;11.70;93.00;;;11.71;100.00;100989.50;5047236;28;20045;-75
2022/05/14 04:37:44;;;;;;;4.05;2.53;;;11.70;93.10;;;11.72;100.00;100987.72;5050877;28;20524;-75
2022/05/14 04:40:12;;;;;;;4.25;2.47;;;11.90;92.90;;;11.80;100.00;100991.09;5050661;28;20076;-75
2022/05/14 04:42:40;;;;;;;4.13;2.80;;;11.80;93.00;;;11.71;100.00;100993.91;5050335;28;20399;-76
2022/05/14 04:45:10;;;;;;;2.58;2.33;;;11.80;93.20;;;11.72;100.00;100998.28;5068550;28;20246;-75
2022/05/14 04:47:41;;;;;;;2.80;2.40;;;11.70;93.30;;;11.84;100.00;101002.44;5066733;28;20086;-75
2022/05/14 04:50:12;;;;;;;5.63;2.38;;;13.30;93.80;;;11.87;100.00;101003.25;5050838;28;20052;-75
2022/05/14 04:52:40;;;;;;;;;;;11.80;93.60;;;11.96;100.00;101009.25;5051253;28;20228;-77
2022/05/14 04:55:09;;;;;;;6.47;3.00;;;11.80;93.60;;;11.88;100.00;101002.34;5067087;28;20005;-75
2022/05/14 04:57:38;;;;;;;4.82;2.60;;;11.80;93.50;;;11.92;100.00;101009.28;5066349;28;20048;-76
2022/05/14 05:00:06;;;;;;;4.63;2.70;;;11.90;93.50;;;12.02;100.00;101014.44;5050623;28;20081;-75
2022/05/14 05:05:24;;;;;;;4.78;2.83;;;12.40;93.30;;;12.06;100.00;101010.81;5052753;28;20799;-76
2022/05/14 05:07:51;;;;;;;4.63;2.25;;;13.20;93.90;;;12.10;100.00;101016.91;5066554;28;20044;-76
2022/05/14 05:10:19;;;;;;;5.82;2.80;;;12.10;93.60;;;12.18;100.00;101015.88;5050238;28;20094;-75
2022/05/14 05:12:46;;;;;;;5.70;2.45;;;12.10;93.60;;;12.22;100.00;101016.69;5044444;28;20048;-76
2022/05/14 05:15:14;;;;;;;5.72;2.03;;;12.10;93.70;;;12.27;100.00;101020.06;5067921;28;20052;-75
2022/05/14 05:17:42;;;;;;;4.80;2.80;;;12.10;93.80;;;12.26;100.00;101023.63;5066353;28;20048;-75
2022/05/14 05:20:10;;;;;;;5.15;3.55;;;12.50;94.00;;;12.32;100.00;101010.28;5066426;28;20040;-75
2022/05/14 05:22:37;;;;;;;4.43;2.90;;;12.30;94.80;;;12.61;100.00;101021.13;5066294;28;20041;-76
2022/05/14 05:25:07;;;;;;;6.10;3.20;;;12.40;95.30;;;12.72;100.00;101024.41;5065706;28;20734;-75
2022/05/14 05:27:34;;;;;;;7.93;3.25;;;12.50;95.20;;;12.76;100.00;101023.44;5066033;28;20052;-76
2022/05/14 05:30:06;;;;;;;5.10;2.90;;;12.70;95.30;;;12.84;100.00;101025.03;5066050;28;20055;-77
2022/05/14 05:32:34;;;;;;;6.50;2.97;;;12.70;95.20;;;12.92;100.00;101023.09;5066892;28;20119;-76
2022/05/14 05:35:01;;;;;;;5.50;3.10;;;12.70;95.50;;;13.02;100.00;101018.44;5068034;28;20044;-77
2022/05/14 05:37:28;;;;;;;5.97;3.25;;;12.80;95.10;;;13.11;100.00;101025.28;5049434;28;20068;-77
2022/05/14 05:39:55;;;;;;;3.45;2.85;;;12.90;95.40;;;13.16;100.00;101028.66;5034186;28;20041;-80
2022/05/14 05:42:22;;;;;;;5.13;3.15;;;13.00;95.40;;;13.27;100.00;101028.44;5034098;28;20433;-78
2022/05/14 05:44:49;;;;;;;5.85;3.30;;;14.90;95.90;;;13.30;100.00;101033.63;5035210;28;20049;-77
2022/05/14 05:47:17;;;;;;;6.97;3.33;;;13.70;95.50;;;13.38;100.00;101036.94;5033494;28;20482;-77
2022/05/14 05:49:45;;;;;;;3.90;3.10;;;13.20;95.50;;;13.44;100.00;101041.25;5046710;28;20033;-77
2022/05/14 05:52:12;;;;;;;6.85;3.55;;;13.80;95.60;;;13.52;100.00;101027.81;5046582;28;20040;-77
2022/05/14 05:57:38;;;;;;;6.00;3.20;;;13.30;95.30;;;13.62;100.00;101042.56;5039562;28;20135;-77
2022/05/14 06:00:12;;;;;;;6.47;3.30;;;13.40;95.30;;;13.66;100.00;101033.63;5057429;28;20029;-76
2022/05/14 06:02:40;;;;;;;6.68;3.45;;;13.50;95.20;;;13.73;100.00;101031.69;5044750;28;20048;-76
2022/05/14 06:05:08;;;;;;;9.50;3.13;;;13.50;95.00;;;13.79;100.00;101026.22;5067374;28;20044;-77
2022/05/14 06:07:36;;;;;;;7.15;3.03;;;13.60;95.20;;;13.81;100.00;101034.97;5066650;28;20063;-78
2022/05/14 06:10:07;;;;;;;6.53;3.63;;;14.10;95.30;;;13.88;100.00;101031.28;5067349;28;20044;-77
2022/05/14 06:12:38;;;;;;;5.60;3.20;;;13.70;94.80;;;13.95;100.00;101033.75;5051553;28;20048;-73
2022/05/14 06:15:12;;;;;;;6.63;2.88;;;13.70;95.00;;;14.04;100.00;101039.66;5067202;28;20036;-74
2022/05/14 06:17:40;;;;;;;6.65;2.88;;;13.80;95.00;;;14.09;100.00;101038.66;5067169;28;20036;-73
2022/05/14 06:20:11;;;;;;;8.07;3.70;;;13.90;94.80;;;14.15;100.00;101043.78;5050217;28;20049;-76
2022/05/14 06:22:39;;;;;;;7.38;3.50;;;14.00;94.90;;;14.21;100.00;101037.44;5065718;28;20045;-74
2022/05/14 06:25:07;;;;;;;8.15;3.33;;;14.00;94.50;;;14.26;100.00;101039.06;5053274;28;20497;-74
2022/05/14 06:27:35;;;;;;;6.35;3.10;;;14.10;94.60;;;14.35;100.00;101037.03;5052427;28;20136;-74
2022/05/14 06:30:03;;;;;;;5.15;2.80;;;14.10;94.70;;;14.54;100.00;101040.91;5063933;28;20048;-75
2022/05/14 06:32:30;;;;;;;6.93;3.10;;;14.20;94.60;;;14.54;100.00;101038.25;5064387;28;20511;-75
2022/05/14 06:34:57;;;;;;;4.55;2.60;;;14.20;94.50;;;14.57;100.00;101039.91;5067707;28;20229;-77
2022/05/14 06:37:24;;;;;;;6.53;3.35;;;14.30;94.30;;;14.62;100.00;101043.31;5049290;28;20717;-77
2022/05/14 06:39:51;;;;;;;5.57;2.30;;;14.40;94.10;;;14.69;100.00;101042.19;5049053;28;20048;-78
2022/05/14 06:42:18;;;;;;;5.72;2.67;;;14.40;93.70;;;14.79;100.00;101045.47;5063539;28;20508;-77
2022/05/14 06:44:47;;;;;;;6.57;2.75;;;14.50;93.50;;;14.93;100.00;101042.41;5051856;28;20048;-76
2022/05/14 06:47:14;;;;;;;4.10;2.67;;;14.50;93.50;;;14.99;100.00;101052.81;5053189;28;20067;-78
2022/05/14 06:49:41;;;;;;;8.18;2.70;;;14.70;93.10;;;15.08;100.00;101056.09;5071227;28;20049;-77
2022/05/14 06:52:12;;;;;;;3.50;2.28;;;14.70;93.00;;;15.07;100.00;101049.91;5055389;28;20044;-77
2022/05/14 06:54:42;;;;;;;5.10;2.30;;;14.80;93.00;;;15.22;100.00;101047.69;5055388;28;20052;-77
2022/05/14 06:57:09;;;;;;;;;;;14.90;92.60;;;15.37;100.00;101057.78;5070594;28;20148;-78
2022/05/14 06:59:37;;;;;;;3.30;2.20;;;15.00;92.40;;;15.66;100.00;101057.69;5071622;28;19928;-78
2022/05/14 07:02:05;;;;;;;6.28;2.58;;;15.20;92.80;;;15.57;100.00;101065.06;5073998;28;20044;-76
2022/05/14 07:07:18;;;;;;;6.40;2.28;;;16.60;92.10;;;15.72;100.00;101054.84;5072378;28;20778;-78
2022/05/14 07:09:45;;;;;;;6.88;3.17;;;15.60;91.60;;;15.80;100.00;101055.44;5070310;28;20506;-77
2022/05/14 07:12:15;;;;;;;4.53;2.78;;;15.90;91.90;;;15.91;100.00;101062.19;5054673;28;20056;-77
2022/05/14 07:14:44;;;;;;;6.78;2.75;;;15.60;91.90;;;16.02;100.00;101054.72;5073357;28;20076;-78
2022/05/14 07:17:12;;;;;;;5.75;2.92;;;15.90;91.50;;;16.19;100.00;101061.22;5072599;28;20047;-78
2022/05/14 07:19:39;;;;;;;6.22;3.67;;;15.80;91.30;;;16.19;100.00;101054.09;5088439;28;20052;-78
2022/05/14 07:22:11;;;;;;;5.85;2.80;;;15.80;91.10;;;16.29;100.00;101057.28;5052846;28;20041;-77
2022/05/14 07:24:38;;;;;;;5.85;3.05;;;17.00;91.40;;;16.35;100.00;101056.19;5034902;28;20047;-77
2022/05/14 07:27:10;;;;;;;6.95;3.13;;;16.00;90.90;;;16.45;100.00;101061.09;5051884;28;20418;-77
2022/05/14 07:29:42;;;;;;;11.88;3.15;;;16.10;90.70;;;16.50;100.00;101054.75;5054387;28;20049;-77
2022/05/14 07:32:13;;;;;;;7.57;3.10;;;16.10;90.60;;;16.58;100.00;101055.31;5066855;28;20120;-77
2022/05/14 07:34:42;;;;;;;6.22;3.25;;;16.20;90.80;;;16.71;100.00;101061.91;5056484;28;20045;-77
2022/05/14 07:37:22;;;;;;;7.25;2.97;;;16.30;90.80;;;16.81;100.00;101057.09;5057211;28;20053;-77
2022/05/14 07:40:17;;;;;;;;;;;16.40;90.60;;;16.76;100.00;101056.41;5040928;28;20059;-78
2022/05/14 07:42:55;;;;;;;7.90;2.78;;;16.40;90.40;;;16.83;100.00;101054.38;5028449;28;20311;-77
2022/05/14 07:45:37;;;;;;;5.68;2.90;;;16.50;90.10;;;16.96;100.00;101055.63;5050772;28;20726;-77
2022/05/14 07:48:09;;;;;;;4.75;3.10;;;16.50;90.20;;;17.06;100.00;101049.97;5052438;28;20124;-77
2022/05/14 07:50:36;;;;;;;5.15;2.72;;;16.60;90.00;;;17.10;96.01;101055.09;5050648;28;20052;-78
2022/05/14 07:53:04;;;;;;;8.48;3.28;;;16.70;88.70;;;17.21;99.09;101057.31;5054393;28;20061;-78
2022/05/14 07:55:33;;;;;;;4.88;3.17;;;16.80;89.20;;;17.26;99.21;101051.81;5037055;28;20466;-77
2022/05/14 07:58:03;;;;;;;5.85;2.83;;;16.90;89.40;;;17.39;96.39;101049.50;5041113;28;20560;-78
2022/05/14 08:00:32;;;;;;;10.07;2.95;;;16.80;88.70;;;17.43;92.62;101054.63;5057028;28;20051;-77
2022/05/14 08:03:00;;;;;;;6.85;3.17;;;17.00;88.10;;;17.50;91.05;101047.25;5039820;28;20124;-77
2022/05/14 08:05:28;;;;;;;7.25;2.85;;;17.00;87.60;;;17.56;91.95;101044.34;5044909;28;20063;-78
2022/05/14 08:07:55;;;;;;;6.43;2.85;;;17.10;87.80;;;17.67;91.75;101048.34;5072225;28;20043;-78
2022/05/14 08:10:22;;;;;;;5.22;2.42;;;17.30;88.00;;;17.69;86.54;101043.81;5051346;28;20092;-77
2022/05/14 08:12:54;;;;;;;6.07;2.95;;;17.30;86.80;;;17.81;85.47;101045.09;5050671;28;20490;-79
2022/05/14 08:15:25;;;;;;;7.43;3.40;;;17.30;86.50;;;17.86;85.23;101038.59;5056090;28;20075;-77
2022/05/14 08:17:52;;;;;;;8.13;2.55;;;17.40;86.40;;;17.85;86.79;101041.34;5057337;28;20090;-76
2022/05/14 08:20:21;;;;;;;7.57;2.50;;;17.40;86.40;;;17.98;84.49;101042.53;5066938;28;20036;-77
2022/05/14 08:25:34;;;;;;;7.78;3.63;;;17.50;85.60;;;18.03;82.25;101041.50;5071021;28;20090;-77
2022/05/14 08:28:01;;;;;;;7.78;3.25;;;17.60;85.50;;;18.15;82.24;101046.28;5070100;28;20643;-78
2022/05/14 08:30:33;;;;;;;16.33;3.10;;;17.70;85.60;;;18.23;83.86;101044.13;5070195;28;20040;-79
2022/05/14 08:33:00;;;;;;;5.97;2.42;;;17.70;85.80;;;18.36;84.70;101038.25;5068346;28;20588;-78
2022/05/14 08:35:28;;;;;;;6.65;2.85;;;17.80;86.10;;;18.39;80.30;101041.63;5051893;28;20056;-78
2022/05/14 08:37:56;;;;;;;5.22;3.05;;;17.90;85.30;;;18.46;81.56;101042.22;5070299;28;20044;-79
2022/05/14 08:40:36;;;;;;;6.25;3.35;;;17.90;85.30;;;18.59;79.37;101041.66;5055433;28;20049;-78
2022/05/14 08:43:16;;;;;;;;;;;18.00;84.90;;;18.70;79.39;101036.66;5044250;28;20064;-78
2022/05/14 08:45:44;;;;;;;;;;;18.10;85.10;;;18.74;76.26;101040.91;5070300;28;19982;-79
2022/05/14 08:48:24;;;;;;;6.30;2.40;;;18.20;84.40;;;18.76;74.75;101041.72;5052268;28;20078;-77
2022/05/14 08:51:14;;;;;;;6.30;2.80;;;18.30;84.10;;;18.76;75.29;101039.03;5069469;28;20037;-77
2022/05/14 08:53:44;;;;;;;4.47;3.05;;;18.40;83.70;;;18.66;75.70;101029.75;5070980;28;20036;-77
2022/05/14 08:56:42;;;;;;;5.43;2.63;;;18.30;83.50;;;18.88;77.14;101032.25;5056595;28;20152;-77
2022/05/14 08:59:44;;;;;;;4.75;2.75;;;18.40;84.50;;;19.04;74.81;101034.19;5069038;28;20050;-78
2022/05/14 09:02:20;;;;;;;5.15;2.88;;;18.50;83.70;;;19.11;72.04;101033.81;5067247;28;20039;-75
2022/05/14 09:04:49;;;;;;;8.02;2.80;;;18.60;83.20;;;19.17;66.25;101042.44;5060314;28;20510;-75
2022/05/14 09:07:18;;;;;;;5.53;2.33;;;18.80;81.60;;;19.11;64.75;101035.59;5068577;28;20044;-77
2022/05/14 09:09:55;;;;;;;8.50;2.67;;;18.80;81.10;;;19.21;67.04;101028.88;5068583;28;20070;-77
2022/05/14 09:12:28;;;;;;;9.48;3.17;;;18.80;81.50;;;19.21;68.47;101036.03;5071088;28;20055;-77
2022/05/14 09:15:03;;;;;;;5.72;2.65;;;18.80;81.70;;;19.22;70.34;101035.09;5069326;28;20433;-77
2022/05/14 09:17:31;;;;;;;4.97;3.33;;;18.90;82.10;;;19.22;72.11;101030.63;5074261;28;20437;-78
2022/05/14 09:20:00;;;;;;;7.55;3.08;;;18.90;82.30;;;19.31;72.58;101020.44;5069652;28;20044;-79
2022/05/14 09:22:53;;;;;;;6.28;2.80;;;18.90;82.30;;;19.44;75.76;101023.34;5035400;28;20055;-79
2022/05/14 09:25:21;;;;;;;8.93;3.75;;;19.00;82.80;;;19.50;74.42;101020.34;5047532;28;20568;-76
2022/05/14 09:27:56;;;;;;;5.85;2.40;;;19.10;82.90;;;19.55;69.12;101024.50;5065619;28;20433;-77
2022/05/14 09:30:37;;;;;;;15.35;8.88;;;19.10;81.80;;;19.76;67.84;101031.47;5049360;28;20059;-75
2022/05/14 09:33:09;;;;;;;8.95;5.38;;;19.30;81.70;;;19.88;64.71;101021.94;5031523;28;20460;-76
2022/05/14 09:35:38;;;;;;;9.32;3.83;;;19.40;80.90;;;19.98;63.55;101024.13;5022169;28;20163;-79
2022/05/14 09:38:21;;;;;;;6.25;2.78;;;19.50;80.50;;;20.07;60.33;101019.22;5055464;28;20048;-79
2022/05/14 09:40:55;;;;;;;14.68;2.75;;;19.60;79.50;;;20.04;62.94;101017.56;5046437;28;20052;-79
2022/05/14 09:43:35;;;;;;;3.63;2.22;;;19.70;80.10;;;20.00;62.19;101020.50;5037926;28;20059;-79
2022/05/14 09:46:10;;;;;;;4.55;2.38;;;19.70;79.80;;;19.96;63.71;101017.13;5055353;28;20481;-78
2022/05/14 09:48:53;;;;;;;9.00;2.90;;;19.70;80.00;;;20.32;63.07;101017.88;5037998;28;20052;-79
2022/05/14 09:51:52;;;;;;;5.95;2.42;;;19.70;80.40;;;20.41;60.81;101017.38;5054445;28;20537;-80
2022/05/14 09:54:29;;;;;;;8.25;2.33;;;19.80;79.70;;;20.33;55.35;101004.44;5037823;28;20054;-80
2022/05/14 09:57:32;;;;;;;8.40;2.65;;;19.90;77.50;;;20.57;54.55;101006.69;5038967;28;20047;-79
2022/05/14 10:00:36;;;;;;;10.57;2.30;;;20.10;77.30;;;20.45;57.17;101015.38;5064474;28;20456;-78
2022/05/14 10:03:29;;;;;;;8.98;3.17;;;20.10;77.90;;;20.47;57.15;101005.47;5068116;28;20041;-80
2022/05/14 10:06:28;;;;;;;3.53;2.05;;;20.10;77.80;;;20.72;55.14;101004.94;5069435;28;20050;-79
2022/05/14 10:09:15;;;;;;;5.57;2.38;;;20.20;77.50;;;20.77;53.30;100997.56;5074655;28;20056;-78
2022/05/14 10:12:00;;;;;;;4.13;2.03;;;20.30;76.70;;;20.77;53.60;100996.69;5077057;28;20063;-80
2022/05/14 10:14:59;;;;;;;5.25;2.00;;;20.40;76.70;;;20.88;53.99;100996.97;5070741;28;20045;-77
2022/05/14 10:18:04;;;;;;;3.85;1.75;;;20.40;77.40;;;21.01;52.20;100997.09;5066479;28;20098;-79
2022/05/14 10:21:29;;;;;;;5.15;2.05;;;20.50;76.00;;;21.16;52.38;100986.47;5056666;28;20067;-79
2022/05/14 10:27:58;;;;;;;4.90;2.10;;;20.70;74.60;;;21.20;48.64;100988.88;5054611;28;20906;-79
2022/05/14 10:30:39;;;;;;;3.53;1.67;;;20.80;74.10;;;21.50;49.49;100976.41;5066145;28;20048;-78
2022/05/14 10:33:12;;;;;;;4.30;1.80;;;20.80;74.90;;;21.60;48.45;100980.25;5058670;28;20505;-77
2022/05/14 10:35:54;;;;;;;5.32;2.42;;;21.00;74.50;;;21.73;49.03;100977.72;5064490;28;20531;-77
2022/05/14 10:38:47;;;;;;;3.75;1.77;;;21.10;74.80;;;21.70;47.58;100977.03;5069034;28;20045;-77
2022/05/14 10:41:44;;;;;;;4.05;1.90;;;21.20;73.50;;;21.95;47.76;100968.38;5053341;28;20061;-78
2022/05/14 10:44:49;;;;;;;6.85;1.67;;;21.30;73.90;;;21.79;45.34;100968.44;5052338;28;20056;-76
2022/05/14 10:47:17;;;;;;;3.15;1.77;;;21.40;71.60;;;21.92;45.38;100968.53;5045726;28;20045;-76
2022/05/14 10:50:02;;;;;;;8.00;2.22;;;21.80;72.10;;;22.09;45.03;100964.81;5052219;28;20096;-76
2022/05/14 10:52:30;;;;;;;6.07;2.30;;;21.50;71.70;;;22.17;44.93;100959.81;5037237;28;20053;-78
2022/05/14 10:54:58;;;;;;;6.05;1.88;;;21.60;71.70;;;22.30;44.60;100957.22;5035854;28;20056;-77